sensor_id;sensor_type;location;lat;lon;timestamp;temperature;humidity
66343;DHT22;53144;51.524;5.080;2023-11-21T00:00:08;6.56;99.99
66343;DHT22;53144;51.524;5.080;2023-11-21T00:02:53;6.49;99.99
66343;DHT22;53144;51.524;5.080;2023-11-21T00:05:19;6.49;99.99
66343;DHT22;53144;51.524;5.080;2023-11-21T00:07:44;6.47;99.99
66343;DHT22;53144;51.524;5.080;2023-11-21T00:10:11;6.39;99.99
66343;DHT22;53144;51.524;5.080;2023-11-21T00:12:37;6.37;99.99
66343;DHT22;53144;51.524;5.080;2023-11-21T00:15:03;6.33;99.99
66343;DHT22;53144;51.524;5.080;2023-11-21T00:17:30;6.32;99.99
66343;DHT22;53144;51.524;5.080;2023-11-21T00:19:56;6.19;99.99
66343;DHT22;53144;51.524;5.080;2023-11-21T00:22:25;6.22;99.99
66343;DHT22;53144;51.524;5.080;2023-11-21T00:24:50;6.21;99.99
66343;DHT22;53144;51.524;5.080;2023-11-21T00:27:16;6.22;99.99
66343;DHT22;53144;51.524;5.080;2023-11-21T00:29:41;6.02;99.99
66343;DHT22;53144;51.524;5.080;2023-11-21T00:32:07;5.92;99.99
66343;DHT22;53144;51.524;5.080;2023-11-21T00:34:32;5.84;99.99
66343;DHT22;53144;51.524;5.080;2023-11-21T00:36:58;5.77;99.99
66343;DHT22;53144;51.524;5.080;2023-11-21T00:39:24;5.74;99.99
66343;DHT22;53144;51.524;5.080;2023-11-21T00:41:49;5.70;99.99
66343;DHT22;53144;51.524;5.080;2023-11-21T00:44:15;5.67;99.99
66343;DHT22;53144;51.524;5.080;2023-11-21T00:46:41;5.71;99.99
66343;DHT22;53144;51.524;5.080;2023-11-21T00:49:07;5.54;99.99
66343;DHT22;53144;51.524;5.080;2023-11-21T00:51:33;5.55;99.99
66343;DHT22;53144;51.524;5.080;2023-11-21T00:53:58;5.55;99.99
66343;DHT22;53144;51.524;5.080;2023-11-21T00:56:23;5.57;99.99
66343;DHT22;53144;51.524;5.080;2023-11-21T00:58:49;5.58;99.99
66343;DHT22;53144;51.524;5.080;2023-11-21T01:01:18;5.57;99.99
66343;DHT22;53144;51.524;5.080;2023-11-21T01:03:43;5.58;99.99
66343;DHT22;53144;51.524;5.080;2023-11-21T01:06:08;5.58;99.99
66343;DHT22;53144;51.524;5.080;2023-11-21T01:08:34;5.63;99.99
66343;DHT22;53144;51.524;5.080;2023-11-21T01:11:01;5.63;99.99
66343;DHT22;53144;51.524;5.080;2023-11-21T01:13:26;5.55;99.99
66343;DHT22;53144;51.524;5.080;2023-11-21T01:15:53;5.57;99.99
66343;DHT22;53144;51.524;5.080;2023-11-21T01:18:18;5.53;99.99
66343;DHT22;53144;51.524;5.080;2023-11-21T01:20:43;5.57;99.99
66343;DHT22;53144;51.524;5.080;2023-11-21T01:23:14;5.57;99.99
66343;DHT22;53144;51.524;5.080;2023-11-21T01:25:40;5.67;99.99
66343;DHT22;53144;51.524;5.080;2023-11-21T01:28:05;5.67;99.99
66343;DHT22;53144;51.524;5.080;2023-11-21T01:30:31;5.70;99.99
66343;DHT22;53144;51.524;5.080;2023-11-21T01:32:58;5.79;99.99
66343;DHT22;53144;51.524;5.080;2023-11-21T01:35:23;5.87;99.99
66343;DHT22;53144;51.524;5.080;2023-11-21T01:37:48;5.87;99.99
66343;DHT22;53144;51.524;5.080;2023-11-21T01:40:14;5.92;99.99
66343;DHT22;53144;51.524;5.080;2023-11-21T01:42:40;5.95;99.99
66343;DHT22;53144;51.524;5.080;2023-11-21T01:45:06;5.85;99.99
66343;DHT22;53144;51.524;5.080;2023-11-21T01:47:33;5.84;99.99
66343;DHT22;53144;51.524;5.080;2023-11-21T01:49:59;5.97;99.99
66343;DHT22;53144;51.524;5.080;2023-11-21T01:52:25;5.92;99.99
66343;DHT22;53144;51.524;5.080;2023-11-21T01:54:51;5.87;99.99
66343;DHT22;53144;51.524;5.080;2023-11-21T01:57:19;5.94;99.99
66343;DHT22;53144;51.524;5.080;2023-11-21T01:59:47;5.98;99.99
66343;DHT22;53144;51.524;5.080;2023-11-21T02:02:14;5.94;99.99
66343;DHT22;53144;51.524;5.080;2023-11-21T02:04:41;5.91;99.99
66343;DHT22;53144;51.524;5.080;2023-11-21T02:07:06;5.94;99.99
66343;DHT22;53144;51.524;5.080;2023-11-21T02:09:31;5.88;99.99
66343;DHT22;53144;51.524;5.080;2023-11-21T02:11:59;5.84;99.99
66343;DHT22;53144;51.524;5.080;2023-11-21T02:14:25;5.82;99.99
66343;DHT22;53144;51.524;5.080;2023-11-21T02:16:52;5.88;99.99
66343;DHT22;53144;51.524;5.080;2023-11-21T02:19:19;5.82;99.99
66343;DHT22;53144;51.524;5.080;2023-11-21T02:21:49;5.85;99.99
66343;DHT22;53144;51.524;5.080;2023-11-21T02:24:15;5.78;99.99
66343;DHT22;53144;51.524;5.080;2023-11-21T02:26:43;5.81;99.99
66343;DHT22;53144;51.524;5.080;2023-11-21T02:29:08;5.81;99.99
66343;DHT22;53144;51.524;5.080;2023-11-21T02:31:37;5.91;99.99
66343;DHT22;53144;51.524;5.080;2023-11-21T02:34:11;5.90;99.99
66343;DHT22;53144;51.524;5.080;2023-11-21T02:36:38;5.92;99.99
66343;DHT22;53144;51.524;5.080;2023-11-21T02:39:04;5.91;99.99
66343;DHT22;53144;51.524;5.080;2023-11-21T02:41:29;5.94;99.99
66343;DHT22;53144;51.524;5.080;2023-11-21T02:43:54;5.99;99.99
66343;DHT22;53144;51.524;5.080;2023-11-21T02:46:20;6.02;99.99
66343;DHT22;53144;51.524;5.080;2023-11-21T02:48:46;5.99;99.99
66343;DHT22;53144;51.524;5.080;2023-11-21T02:51:11;6.01;99.99
66343;DHT22;53144;51.524;5.080;2023-11-21T02:53:37;5.98;99.99
66343;DHT22;53144;51.524;5.080;2023-11-21T02:56:04;6.02;99.99
66343;DHT22;53144;51.524;5.080;2023-11-21T02:58:29;5.97;99.99
66343;DHT22;53144;51.524;5.080;2023-11-21T03:00:55;6.08;99.99
66343;DHT22;53144;51.524;5.080;2023-11-21T03:03:24;6.15;99.99
66343;DHT22;53144;51.524;5.080;2023-11-21T03:05:50;6.19;99.99
66343;DHT22;53144;51.524;5.080;2023-11-21T03:08:15;6.16;99.99
66343;DHT22;53144;51.524;5.080;2023-11-21T03:10:41;6.18;99.99
66343;DHT22;53144;51.524;5.080;2023-11-21T03:13:07;6.18;99.99
66343;DHT22;53144;51.524;5.080;2023-11-21T03:15:33;6.15;99.99
66343;DHT22;53144;51.524;5.080;2023-11-21T03:18:00;6.12;99.99
66343;DHT22;53144;51.524;5.080;2023-11-21T03:20:25;6.15;99.99
66343;DHT22;53144;51.524;5.080;2023-11-21T03:22:50;6.18;99.99
66343;DHT22;53144;51.524;5.080;2023-11-21T03:25:16;6.12;99.99
66343;DHT22;53144;51.524;5.080;2023-11-21T03:27:42;6.19;99.99
66343;DHT22;53144;51.524;5.080;2023-11-21T03:30:10;6.26;99.99
66343;DHT22;53144;51.524;5.080;2023-11-21T03:32:36;6.32;99.99
66343;DHT22;53144;51.524;5.080;2023-11-21T03:35:02;6.33;99.99
66343;DHT22;53144;51.524;5.080;2023-11-21T03:37:27;6.30;99.99
66343;DHT22;53144;51.524;5.080;2023-11-21T03:39:56;6.37;99.99
66343;DHT22;53144;51.524;5.080;2023-11-21T03:42:22;6.33;99.99
66343;DHT22;53144;51.524;5.080;2023-11-21T03:44:47;6.30;99.99
66343;DHT22;53144;51.524;5.080;2023-11-21T03:47:12;6.34;99.99
66343;DHT22;53144;51.524;5.080;2023-11-21T03:49:38;6.40;99.99
66343;DHT22;53144;51.524;5.080;2023-11-21T03:52:04;6.50;99.99
66343;DHT22;53144;51.524;5.080;2023-11-21T03:54:29;6.49;99.99
66343;DHT22;53144;51.524;5.080;2023-11-21T03:56:54;6.49;99.99
66343;DHT22;53144;51.524;5.080;2023-11-21T03:59:20;6.53;99.99
66343;DHT22;53144;51.524;5.080;2023-11-21T04:01:45;6.54;99.99
66343;DHT22;53144;51.524;5.080;2023-11-21T04:04:11;6.47;99.99
66343;DHT22;53144;51.524;5.080;2023-11-21T04:06:36;6.40;99.99
66343;DHT22;53144;51.524;5.080;2023-11-21T04:09:02;6.37;99.99
66343;DHT22;53144;51.524;5.080;2023-11-21T04:11:29;6.33;99.99
66343;DHT22;53144;51.524;5.080;2023-11-21T04:13:55;6.32;99.99
66343;DHT22;53144;51.524;5.080;2023-11-21T04:16:20;6.34;99.99
66343;DHT22;53144;51.524;5.080;2023-11-21T04:18:46;6.33;99.99
66343;DHT22;53144;51.524;5.080;2023-11-21T04:21:11;6.39;99.99
66343;DHT22;53144;51.524;5.080;2023-11-21T04:23:37;6.49;99.99
66343;DHT22;53144;51.524;5.080;2023-11-21T04:26:02;6.53;99.99
66343;DHT22;53144;51.524;5.080;2023-11-21T04:28:28;6.58;99.99
66343;DHT22;53144;51.524;5.080;2023-11-21T04:30:54;6.62;99.99
66343;DHT22;53144;51.524;5.080;2023-11-21T04:33:19;6.71;99.99
66343;DHT22;53144;51.524;5.080;2023-11-21T04:35:46;6.73;99.99
66343;DHT22;53144;51.524;5.080;2023-11-21T04:38:12;6.73;99.99
66343;DHT22;53144;51.524;5.080;2023-11-21T04:40:37;6.70;99.99
66343;DHT22;53144;51.524;5.080;2023-11-21T04:43:02;6.70;99.99
66343;DHT22;53144;51.524;5.080;2023-11-21T04:45:29;6.73;99.99
66343;DHT22;53144;51.524;5.080;2023-11-21T04:47:54;6.77;99.99
66343;DHT22;53144;51.524;5.080;2023-11-21T04:50:19;6.76;99.99
66343;DHT22;53144;51.524;5.080;2023-11-21T04:52:45;6.83;99.99
66343;DHT22;53144;51.524;5.080;2023-11-21T04:55:11;6.83;99.99
66343;DHT22;53144;51.524;5.080;2023-11-21T04:57:37;6.83;99.99
66343;DHT22;53144;51.524;5.080;2023-11-21T05:00:02;6.85;99.99
66343;DHT22;53144;51.524;5.080;2023-11-21T05:02:32;6.94;99.99
66343;DHT22;53144;51.524;5.080;2023-11-21T05:04:59;6.92;99.99
66343;DHT22;53144;51.524;5.080;2023-11-21T05:07:25;6.97;99.99
66343;DHT22;53144;51.524;5.080;2023-11-21T05:09:52;6.98;99.99
66343;DHT22;53144;51.524;5.080;2023-11-21T05:12:18;7.02;99.99
66343;DHT22;53144;51.524;5.080;2023-11-21T05:14:43;7.08;99.99
66343;DHT22;53144;51.524;5.080;2023-11-21T05:17:08;7.05;99.99
66343;DHT22;53144;51.524;5.080;2023-11-21T05:19:34;7.07;99.99
66343;DHT22;53144;51.524;5.080;2023-11-21T05:22:00;7.09;99.99
66343;DHT22;53144;51.524;5.080;2023-11-21T05:24:26;7.12;99.99
66343;DHT22;53144;51.524;5.080;2023-11-21T05:26:51;7.11;99.99
66343;DHT22;53144;51.524;5.080;2023-11-21T05:29:18;7.15;99.99
66343;DHT22;53144;51.524;5.080;2023-11-21T05:31:43;7.22;99.99
66343;DHT22;53144;51.524;5.080;2023-11-21T05:34:09;7.18;99.99
66343;DHT22;53144;51.524;5.080;2023-11-21T05:36:34;7.14;99.99
66343;DHT22;53144;51.524;5.080;2023-11-21T05:38:59;7.12;99.99
66343;DHT22;53144;51.524;5.080;2023-11-21T05:41:25;7.12;99.99
66343;DHT22;53144;51.524;5.080;2023-11-21T05:43:50;7.15;99.99
66343;DHT22;53144;51.524;5.080;2023-11-21T05:46:16;7.16;99.99
66343;DHT22;53144;51.524;5.080;2023-11-21T05:48:42;7.08;99.99
66343;DHT22;53144;51.524;5.080;2023-11-21T05:51:07;7.12;99.99
66343;DHT22;53144;51.524;5.080;2023-11-21T05:53:33;7.11;99.99
66343;DHT22;53144;51.524;5.080;2023-11-21T05:55:59;7.12;99.99
66343;DHT22;53144;51.524;5.080;2023-11-21T05:58:24;7.14;99.99
66343;DHT22;53144;51.524;5.080;2023-11-21T06:00:49;7.25;99.99
66343;DHT22;53144;51.524;5.080;2023-11-21T06:03:15;7.15;99.99
66343;DHT22;53144;51.524;5.080;2023-11-21T06:05:42;7.15;99.99
66343;DHT22;53144;51.524;5.080;2023-11-21T06:08:08;7.12;99.99
66343;DHT22;53144;51.524;5.080;2023-11-21T06:10:33;7.16;99.99
66343;DHT22;53144;51.524;5.080;2023-11-21T06:12:59;7.29;99.99
66343;DHT22;53144;51.524;5.080;2023-11-21T06:15:24;7.29;99.99
66343;DHT22;53144;51.524;5.080;2023-11-21T06:17:50;7.21;99.99
66343;DHT22;53144;51.524;5.080;2023-11-21T06:20:19;7.18;99.99
66343;DHT22;53144;51.524;5.080;2023-11-21T06:22:47;7.23;99.99
66343;DHT22;53144;51.524;5.080;2023-11-21T06:25:13;7.22;99.99
66343;DHT22;53144;51.524;5.080;2023-11-21T06:27:43;7.23;99.99
66343;DHT22;53144;51.524;5.080;2023-11-21T06:30:10;7.26;99.99
66343;DHT22;53144;51.524;5.080;2023-11-21T06:32:37;7.32;99.99
66343;DHT22;53144;51.524;5.080;2023-11-21T06:35:03;7.32;99.99
66343;DHT22;53144;51.524;5.080;2023-11-21T06:37:29;7.32;99.99
66343;DHT22;53144;51.524;5.080;2023-11-21T06:39:56;7.39;99.99
66343;DHT22;53144;51.524;5.080;2023-11-21T06:42:23;7.42;99.99
66343;DHT22;53144;51.524;5.080;2023-11-21T06:44:49;7.45;99.99
66343;DHT22;53144;51.524;5.080;2023-11-21T06:47:17;7.48;99.99
66343;DHT22;53144;51.524;5.080;2023-11-21T06:49:43;7.48;99.99
66343;DHT22;53144;51.524;5.080;2023-11-21T06:52:08;7.52;99.99
66343;DHT22;53144;51.524;5.080;2023-11-21T06:54:34;7.53;99.99
66343;DHT22;53144;51.524;5.080;2023-11-21T06:57:00;7.59;99.99
66343;DHT22;53144;51.524;5.080;2023-11-21T06:59:25;7.56;99.99
66343;DHT22;53144;51.524;5.080;2023-11-21T07:01:51;7.60;99.99
66343;DHT22;53144;51.524;5.080;2023-11-21T07:04:16;7.62;99.99
66343;DHT22;53144;51.524;5.080;2023-11-21T07:06:43;7.58;99.99
66343;DHT22;53144;51.524;5.080;2023-11-21T07:09:09;7.59;99.99
66343;DHT22;53144;51.524;5.080;2023-11-21T07:11:35;7.66;99.99
66343;DHT22;53144;51.524;5.080;2023-11-21T07:14:00;7.70;99.99
66343;DHT22;53144;51.524;5.080;2023-11-21T07:16:34;7.73;99.99
66343;DHT22;53144;51.524;5.080;2023-11-21T07:19:00;7.77;99.99
66343;DHT22;53144;51.524;5.080;2023-11-21T07:21:25;7.83;99.99
66343;DHT22;53144;51.524;5.080;2023-11-21T07:23:50;7.87;99.99
66343;DHT22;53144;51.524;5.080;2023-11-21T07:26:16;7.98;99.99
66343;DHT22;53144;51.524;5.080;2023-11-21T07:28:41;8.04;99.99
66343;DHT22;53144;51.524;5.080;2023-11-21T07:31:06;8.07;99.99
66343;DHT22;53144;51.524;5.080;2023-11-21T07:33:32;8.18;99.99
66343;DHT22;53144;51.524;5.080;2023-11-21T07:35:57;8.12;99.99
66343;DHT22;53144;51.524;5.080;2023-11-21T07:38:22;8.12;99.99
66343;DHT22;53144;51.524;5.080;2023-11-21T07:40:48;8.20;99.99
66343;DHT22;53144;51.524;5.080;2023-11-21T07:43:13;8.24;99.99
66343;DHT22;53144;51.524;5.080;2023-11-21T07:45:39;8.27;99.99
66343;DHT22;53144;51.524;5.080;2023-11-21T07:48:04;8.30;99.99
66343;DHT22;53144;51.524;5.080;2023-11-21T07:50:30;8.32;99.99
66343;DHT22;53144;51.524;5.080;2023-11-21T07:52:56;8.31;99.99
66343;DHT22;53144;51.524;5.080;2023-11-21T07:55:22;8.34;99.99
66343;DHT22;53144;51.524;5.080;2023-11-21T07:57:47;8.35;99.99
66343;DHT22;53144;51.524;5.080;2023-11-21T08:00:13;8.37;99.99
66343;DHT22;53144;51.524;5.080;2023-11-21T08:02:40;8.44;99.99
66343;DHT22;53144;51.524;5.080;2023-11-21T08:05:11;8.46;99.99
66343;DHT22;53144;51.524;5.080;2023-11-21T08:07:37;8.55;99.99
66343;DHT22;53144;51.524;5.080;2023-11-21T08:10:02;8.53;99.99
66343;DHT22;53144;51.524;5.080;2023-11-21T08:12:30;8.58;99.99
66343;DHT22;53144;51.524;5.080;2023-11-21T08:14:55;8.65;99.99
66343;DHT22;53144;51.524;5.080;2023-11-21T08:17:20;8.73;99.99
66343;DHT22;53144;51.524;5.080;2023-11-21T08:19:49;8.68;99.99
66343;DHT22;53144;51.524;5.080;2023-11-21T08:22:16;8.66;99.99
66343;DHT22;53144;51.524;5.080;2023-11-21T08:24:43;8.69;99.99
66343;DHT22;53144;51.524;5.080;2023-11-21T08:27:08;8.70;99.99
66343;DHT22;53144;51.524;5.080;2023-11-21T08:29:34;8.75;99.99
66343;DHT22;53144;51.524;5.080;2023-11-21T08:32:02;8.83;99.99
66343;DHT22;53144;51.524;5.080;2023-11-21T08:34:27;8.86;99.99
66343;DHT22;53144;51.524;5.080;2023-11-21T08:36:53;8.87;99.99
66343;DHT22;53144;51.524;5.080;2023-11-21T08:39:19;8.89;99.99
66343;DHT22;53144;51.524;5.080;2023-11-21T08:41:44;8.93;99.99
66343;DHT22;53144;51.524;5.080;2023-11-21T08:44:09;8.99;99.99
66343;DHT22;53144;51.524;5.080;2023-11-21T08:46:36;9.03;99.99
66343;DHT22;53144;51.524;5.080;2023-11-21T08:49:03;9.14;99.99
66343;DHT22;53144;51.524;5.080;2023-11-21T08:51:28;9.16;99.99
66343;DHT22;53144;51.524;5.080;2023-11-21T08:53:53;9.20;99.99
66343;DHT22;53144;51.524;5.080;2023-11-21T08:56:19;9.18;99.99
66343;DHT22;53144;51.524;5.080;2023-11-21T08:58:45;9.20;99.99
66343;DHT22;53144;51.524;5.080;2023-11-21T09:01:12;9.28;99.99
66343;DHT22;53144;51.524;5.080;2023-11-21T09:03:38;9.32;99.99
66343;DHT22;53144;51.524;5.080;2023-11-21T09:06:03;9.32;99.99
66343;DHT22;53144;51.524;5.080;2023-11-21T09:08:29;9.35;99.99
66343;DHT22;53144;51.524;5.080;2023-11-21T09:10:55;9.38;99.99
66343;DHT22;53144;51.524;5.080;2023-11-21T09:13:20;9.41;99.99
66343;DHT22;53144;51.524;5.080;2023-11-21T09:15:45;9.51;99.99
66343;DHT22;53144;51.524;5.080;2023-11-21T09:18:14;9.57;99.99
66343;DHT22;53144;51.524;5.080;2023-11-21T09:20:43;9.65;99.99
66343;DHT22;53144;51.524;5.080;2023-11-21T09:23:11;9.75;99.99
66343;DHT22;53144;51.524;5.080;2023-11-21T09:25:36;9.74;99.99
66343;DHT22;53144;51.524;5.080;2023-11-21T09:28:03;9.82;99.99
66343;DHT22;53144;51.524;5.080;2023-11-21T09:30:33;10.00;99.99
66343;DHT22;53144;51.524;5.080;2023-11-21T09:32:58;9.98;99.99
66343;DHT22;53144;51.524;5.080;2023-11-21T09:35:24;10.02;99.99
66343;DHT22;53144;51.524;5.080;2023-11-21T09:37:50;10.02;99.99
66343;DHT22;53144;51.524;5.080;2023-11-21T09:40:21;10.02;99.99
66343;DHT22;53144;51.524;5.080;2023-11-21T09:42:57;10.00;99.99
66343;DHT22;53144;51.524;5.080;2023-11-21T09:45:28;10.06;99.99
66343;DHT22;53144;51.524;5.080;2023-11-21T09:47:57;10.07;99.99
66343;DHT22;53144;51.524;5.080;2023-11-21T09:50:23;10.13;99.99
66343;DHT22;53144;51.524;5.080;2023-11-21T09:52:54;10.13;99.99
66343;DHT22;53144;51.524;5.080;2023-11-21T09:55:21;10.21;99.99
66343;DHT22;53144;51.524;5.080;2023-11-21T09:57:47;10.23;99.99
66343;DHT22;53144;51.524;5.080;2023-11-21T10:00:14;10.17;99.99
66343;DHT22;53144;51.524;5.080;2023-11-21T10:02:43;10.19;99.99
66343;DHT22;53144;51.524;5.080;2023-11-21T10:05:08;10.21;99.99
66343;DHT22;53144;51.524;5.080;2023-11-21T10:07:37;10.26;99.99
66343;DHT22;53144;51.524;5.080;2023-11-21T10:10:05;10.30;99.99
66343;DHT22;53144;51.524;5.080;2023-11-21T10:12:32;10.30;99.99
66343;DHT22;53144;51.524;5.080;2023-11-21T10:14:59;10.50;99.99
66343;DHT22;53144;51.524;5.080;2023-11-21T10:17:28;10.44;99.99
66343;DHT22;53144;51.524;5.080;2023-11-21T10:20:02;10.41;99.99
66343;DHT22;53144;51.524;5.080;2023-11-21T10:22:29;10.44;99.99
66343;DHT22;53144;51.524;5.080;2023-11-21T10:24:54;10.50;99.99
66343;DHT22;53144;51.524;5.080;2023-11-21T10:27:19;10.50;99.99
66343;DHT22;53144;51.524;5.080;2023-11-21T10:29:45;10.53;99.99
66343;DHT22;53144;51.524;5.080;2023-11-21T10:32:11;10.57;99.99
66343;DHT22;53144;51.524;5.080;2023-11-21T10:34:37;10.67;99.99
66343;DHT22;53144;51.524;5.080;2023-11-21T10:37:10;10.74;99.99
66343;DHT22;53144;51.524;5.080;2023-11-21T10:39:36;10.74;99.99
66343;DHT22;53144;51.524;5.080;2023-11-21T10:42:01;10.60;99.99
66343;DHT22;53144;51.524;5.080;2023-11-21T10:44:27;10.60;99.99
66343;DHT22;53144;51.524;5.080;2023-11-21T10:46:53;10.77;99.99
66343;DHT22;53144;51.524;5.080;2023-11-21T10:49:24;10.74;99.99
66343;DHT22;53144;51.524;5.080;2023-11-21T10:51:54;10.74;99.99
66343;DHT22;53144;51.524;5.080;2023-11-21T10:54:20;10.78;99.99
66343;DHT22;53144;51.524;5.080;2023-11-21T10:56:48;10.74;99.99
66343;DHT22;53144;51.524;5.080;2023-11-21T10:59:16;10.72;99.99
66343;DHT22;53144;51.524;5.080;2023-11-21T11:01:42;10.79;99.99
66343;DHT22;53144;51.524;5.080;2023-11-21T11:04:09;10.82;99.99
66343;DHT22;53144;51.524;5.080;2023-11-21T11:06:43;10.84;99.99
66343;DHT22;53144;51.524;5.080;2023-11-21T11:09:11;10.74;99.99
66343;DHT22;53144;51.524;5.080;2023-11-21T11:11:39;10.72;99.99
66343;DHT22;53144;51.524;5.080;2023-11-21T11:14:09;10.71;99.99
66343;DHT22;53144;51.524;5.080;2023-11-21T11:16:36;10.84;99.99
66343;DHT22;53144;51.524;5.080;2023-11-21T11:19:05;10.88;99.99
66343;DHT22;53144;51.524;5.080;2023-11-21T11:21:34;10.89;99.99
66343;DHT22;53144;51.524;5.080;2023-11-21T11:26:58;11.14;99.99
66343;DHT22;53144;51.524;5.080;2023-11-21T11:29:42;11.09;99.89
66343;DHT22;53144;51.524;5.080;2023-11-21T11:32:43;11.14;99.99
66343;DHT22;53144;51.524;5.080;2023-11-21T11:35:29;11.12;99.99
66343;DHT22;53144;51.524;5.080;2023-11-21T11:37:58;11.18;99.99
66343;DHT22;53144;51.524;5.080;2023-11-21T11:40:25;11.09;99.63
66343;DHT22;53144;51.524;5.080;2023-11-21T11:43:01;11.05;99.54
66343;DHT22;53144;51.524;5.080;2023-11-21T11:45:34;11.01;99.90
66343;DHT22;53144;51.524;5.080;2023-11-21T11:48:01;10.98;99.99
66343;DHT22;53144;51.524;5.080;2023-11-21T11:50:27;11.04;99.81
66343;DHT22;53144;51.524;5.080;2023-11-21T11:52:53;11.02;99.94
66343;DHT22;53144;51.524;5.080;2023-11-21T11:55:22;11.11;99.54
66343;DHT22;53144;51.524;5.080;2023-11-21T11:57:54;10.98;99.95
66343;DHT22;53144;51.524;5.080;2023-11-21T12:03:02;10.88;99.43
66343;DHT22;53144;51.524;5.080;2023-11-21T12:05:29;10.85;99.99
66343;DHT22;53144;51.524;5.080;2023-11-21T12:08:02;10.89;99.99
66343;DHT22;53144;51.524;5.080;2023-11-21T12:10:30;10.89;99.99
66343;DHT22;53144;51.524;5.080;2023-11-21T12:13:05;10.98;99.99
66343;DHT22;53144;51.524;5.080;2023-11-21T12:15:34;10.95;99.59
66343;DHT22;53144;51.524;5.080;2023-11-21T12:18:00;10.98;99.49
66343;DHT22;53144;51.524;5.080;2023-11-21T12:20:26;11.01;99.75
66343;DHT22;53144;51.524;5.080;2023-11-21T12:22:53;10.94;99.99
66343;DHT22;53144;51.524;5.080;2023-11-21T12:25:19;10.99;99.92
66343;DHT22;53144;51.524;5.080;2023-11-21T12:27:50;10.92;99.99
66343;DHT22;53144;51.524;5.080;2023-11-21T12:30:17;10.88;99.99
66343;DHT22;53144;51.524;5.080;2023-11-21T12:32:44;10.78;99.84
66343;DHT22;53144;51.524;5.080;2023-11-21T12:35:13;10.77;99.63
66343;DHT22;53144;51.524;5.080;2023-11-21T12:37:39;10.81;99.90
66343;DHT22;53144;51.524;5.080;2023-11-21T12:40:09;10.79;99.99
66343;DHT22;53144;51.524;5.080;2023-11-21T12:42:41;10.79;99.99
66343;DHT22;53144;51.524;5.080;2023-11-21T12:45:25;10.79;99.99
66343;DHT22;53144;51.524;5.080;2023-11-21T12:48:10;10.71;99.99
66343;DHT22;53144;51.524;5.080;2023-11-21T12:50:37;10.75;99.99
66343;DHT22;53144;51.524;5.080;2023-11-21T12:53:11;10.77;99.99
66343;DHT22;53144;51.524;5.080;2023-11-21T12:55:43;10.78;99.99
66343;DHT22;53144;51.524;5.080;2023-11-21T12:58:15;10.72;99.99
66343;DHT22;53144;51.524;5.080;2023-11-21T13:00:47;10.72;99.99
66343;DHT22;53144;51.524;5.080;2023-11-21T13:03:15;10.63;99.99
66343;DHT22;53144;51.524;5.080;2023-11-21T13:05:51;10.57;99.99
66343;DHT22;53144;51.524;5.080;2023-11-21T13:08:21;10.56;99.99
66343;DHT22;53144;51.524;5.080;2023-11-21T13:10:55;10.58;99.99
66343;DHT22;53144;51.524;5.080;2023-11-21T13:13:23;10.51;99.99
66343;DHT22;53144;51.524;5.080;2023-11-21T13:15:50;10.51;99.99
66343;DHT22;53144;51.524;5.080;2023-11-21T13:18:17;10.48;99.99
66343;DHT22;53144;51.524;5.080;2023-11-21T13:20:43;10.44;99.99
66343;DHT22;53144;51.524;5.080;2023-11-21T13:23:10;10.38;99.99
66343;DHT22;53144;51.524;5.080;2023-11-21T13:25:41;10.37;99.99
66343;DHT22;53144;51.524;5.080;2023-11-21T13:28:07;10.38;99.99
66343;DHT22;53144;51.524;5.080;2023-11-21T13:30:33;10.38;99.99
66343;DHT22;53144;51.524;5.080;2023-11-21T13:33:05;10.29;99.99
66343;DHT22;53144;51.524;5.080;2023-11-21T13:35:39;10.38;99.99
66343;DHT22;53144;51.524;5.080;2023-11-21T13:38:12;10.33;99.99
66343;DHT22;53144;51.524;5.080;2023-11-21T13:40:40;10.38;99.99
66343;DHT22;53144;51.524;5.080;2023-11-21T13:43:10;10.38;99.99
66343;DHT22;53144;51.524;5.080;2023-11-21T13:45:36;10.44;99.99
66343;DHT22;53144;51.524;5.080;2023-11-21T13:48:02;10.38;99.99
66343;DHT22;53144;51.524;5.080;2023-11-21T13:50:27;10.30;99.99
66343;DHT22;53144;51.524;5.080;2023-11-21T13:53:02;10.34;99.99
66343;DHT22;53144;51.524;5.080;2023-11-21T13:55:34;10.34;99.92
66343;DHT22;53144;51.524;5.080;2023-11-21T13:58:01;10.32;99.99
66343;DHT22;53144;51.524;5.080;2023-11-21T14:00:27;10.29;99.99
66343;DHT22;53144;51.524;5.080;2023-11-21T14:03:12;10.36;99.94
66343;DHT22;53144;51.524;5.080;2023-11-21T14:05:50;10.40;99.95
66343;DHT22;53144;51.524;5.080;2023-11-21T14:08:19;10.44;99.40
66343;DHT22;53144;51.524;5.080;2023-11-21T14:10:50;10.43;99.87
66343;DHT22;53144;51.524;5.080;2023-11-21T14:13:26;10.38;99.47
66343;DHT22;53144;51.524;5.080;2023-11-21T14:15:52;10.36;99.56
66343;DHT22;53144;51.524;5.080;2023-11-21T14:18:25;10.33;99.48
66343;DHT22;53144;51.524;5.080;2023-11-21T14:21:04;10.38;99.54
66343;DHT22;53144;51.524;5.080;2023-11-21T14:23:31;10.44;99.30
66343;DHT22;53144;51.524;5.080;2023-11-21T14:25:56;10.38;99.48
66343;DHT22;53144;51.524;5.080;2023-11-21T14:28:23;10.37;99.00
66343;DHT22;53144;51.524;5.080;2023-11-21T14:30:48;10.34;99.43
66343;DHT22;53144;51.524;5.080;2023-11-21T14:33:13;10.37;99.34
66343;DHT22;53144;51.524;5.080;2023-11-21T14:35:42;10.36;99.04
66343;DHT22;53144;51.524;5.080;2023-11-21T14:38:07;10.32;99.43
66343;DHT22;53144;51.524;5.080;2023-11-21T14:40:33;10.48;99.13
66343;DHT22;53144;51.524;5.080;2023-11-21T14:43:00;10.41;99.29
66343;DHT22;53144;51.524;5.080;2023-11-21T14:45:26;10.33;98.83
66343;DHT22;53144;51.524;5.080;2023-11-21T14:47:52;10.34;99.02
66343;DHT22;53144;51.524;5.080;2023-11-21T14:50:36;10.33;99.25
66343;DHT22;53144;51.524;5.080;2023-11-21T14:53:11;10.40;99.36
66343;DHT22;53144;51.524;5.080;2023-11-21T14:55:38;10.38;99.29
66343;DHT22;53144;51.524;5.080;2023-11-21T14:58:16;10.33;99.31
66343;DHT22;53144;51.524;5.080;2023-11-21T15:00:55;10.37;99.15
66343;DHT22;53144;51.524;5.080;2023-11-21T15:03:26;10.34;98.84
66343;DHT22;53144;51.524;5.080;2023-11-21T15:06:02;10.33;99.07
66343;DHT22;53144;51.524;5.080;2023-11-21T15:08:51;10.34;98.71
66343;DHT22;53144;51.524;5.080;2023-11-21T15:11:25;10.29;99.13
66343;DHT22;53144;51.524;5.080;2023-11-21T15:13:56;10.37;98.41
66343;DHT22;53144;51.524;5.080;2023-11-21T15:16:22;10.36;98.55
66343;DHT22;53144;51.524;5.080;2023-11-21T15:18:47;10.37;98.69
66343;DHT22;53144;51.524;5.080;2023-11-21T15:21:13;10.40;99.07
66343;DHT22;53144;51.524;5.080;2023-11-21T15:23:38;10.30;98.96
66343;DHT22;53144;51.524;5.080;2023-11-21T15:26:06;10.24;99.14
66343;DHT22;53144;51.524;5.080;2023-11-21T15:28:34;10.19;99.71
66343;DHT22;53144;51.524;5.080;2023-11-21T15:30:59;10.21;99.84
66343;DHT22;53144;51.524;5.080;2023-11-21T15:33:24;10.19;99.94
66343;DHT22;53144;51.524;5.080;2023-11-21T15:35:52;10.10;99.95
66343;DHT22;53144;51.524;5.080;2023-11-21T15:38:19;10.13;99.99
66343;DHT22;53144;51.524;5.080;2023-11-21T15:40:45;10.17;99.99
66343;DHT22;53144;51.524;5.080;2023-11-21T15:43:10;10.07;99.99
66343;DHT22;53144;51.524;5.080;2023-11-21T15:45:36;10.03;99.99